Roanoke Regional Woodrum Field
KROA : now visible

Airfield :











YOU CAN JOIN US ON...

 
LOGIN :

Register | Disclaimer

   EN    FR    IT 

 









Legend :    VFR   Marginal VFR   IFR   Intensive IFR   Very Intensive IFR
Visi :
Ceiling :
>= 8 km
>= 3000ft
5 to 8 km
1000 to 3000 ft
1500m to 5 km
500 to 1000 ft
800 to 1500m
200 to 500 ft
< 800m
< 200 ft
Symbols :   Thunderstorms  Fog  Heavy snow  Heavy precipitations  Wind > 20 kt







- Airport Elevation : 1175 ft
- IATA code : ROA


KROA - Roanoke Regional Woodrum Field

CURRENT METAR :
  • 190254Z 33004KT 10SM SCT009 OVC230 21/19 A2995 RMK AO2 SLP131 60000 T02110194 58008

EXPIRED METARs :
  • 190233Z 33004KT 10SM SCT009 OVC230 21/20 A2996 RMK AO2 T02110200
  • 190154Z 00000KT 10SM BKN004 BKN008 OVC110 22/21 A2997 RMK AO2 RAE27 SLP138 P0000 T02170206
  • 190132Z 15004KT 10SM BKN006 BKN120 22/21 A2998 RMK AO2 RAE27 P0000 T02170206
  • 190118Z 15003KT 10SM -RA SCT006 SCT120 22/21 A2998 RMK AO2 P0000 T02170206
  • 190054Z 29003KT 10SM -RA BKN006 OVC110 22/21 A2999 RMK AO2 SLP142 P0000 T02170206

TAF KROA
Valid from the 19 at 03:00 until the 20 at 00:00 UTC


190250Z 1903/1924 33004KT P6SM SCT009 OVC230
TEMPO 1904/1908 4SM BR BKN006
FM190800 VRB02KT 3SM BR OVC005
FM191400 22007KT P6SM BKN050
FM191800 21007KT P6SM -SHRA VCTS BKN045CB
KZDC FIR / North America



MET'MAP, your aeronautical weather chart ! - Copyright ORBIFLY December 2007 - Disclaimer

ORBIFLY MET'MAP TEAM :

Programming & Development : Alexandra Zaïnal
Concept & Development : Baudouin d'Aumeries
Co-Development & Prog : Marc-Olivier Méhu
Technical & hardware support : Manuel Goepfert

Contact : metmap@orbifly.com




SOURCES & CREDITS :

   NOAA       Earth
Advisory